TimeCDT,TemperatureF,Dew PointF,Humidity,Sea Level PressureIn,VisibilityMPH,Wind Direction,Wind SpeedMPH,Gust SpeedMPH,PrecipitationIn,Events,Conditions,WindDirDegrees,DateUTC
12:15 AM,63.7,58.5,83,30.09,10.0,Calm,Calm,-,N/A,,Clear,0,2013-07-11 05:15:00
12:35 AM,63.7,58.1,82,30.10,10.0,Calm,Calm,-,N/A,,Clear,0,2013-07-11 05:35:00
12:55 AM,63.3,58.1,83,30.10,10.0,Calm,Calm,-,N/A,,Clear,0,2013-07-11 05:55:00
1:15 AM,63.0,57.9,84,30.10,10.0,Calm,Calm,-,N/A,,Clear,0,2013-07-11 06:15:00
1:35 AM,63.5,57.4,80,30.11,10.0,Calm,Calm,-,N/A,,Clear,0,2013-07-11 06:35:00
1:55 AM,62.6,57.6,84,30.11,10.0,Calm,Calm,-,N/A,,Clear,0,2013-07-11 06:55:00
2:15 AM,62.6,57.4,83,30.11,10.0,Calm,Calm,-,N/A,,Clear,0,2013-07-11 07:15:00
2:35 AM,61.9,57.4,85,30.11,10.0,Calm,Calm,-,N/A,,Clear,0,2013-07-11 07:35:00
2:55 AM,60.8,56.7,86,30.11,10.0,Calm,Calm,-,N/A,,Clear,0,2013-07-11 07:55:00
3:15 AM,61.3,57.4,87,30.11,10.0,Calm,Calm,-,N/A,,Clear,0,2013-07-11 08:15:00
3:35 AM,59.9,56.3,88,30.12,10.0,Calm,Calm,-,N/A,,Clear,0,2013-07-11 08:35:00
3:55 AM,59.4,56.1,89,30.12,10.0,Calm,Calm,-,N/A,,Clear,0,2013-07-11 08:55:00
4:15 AM,59.7,56.5,89,30.12,10.0,Calm,Calm,-,N/A,,Clear,0,2013-07-11 09:15:00
4:35 AM,59.0,56.1,90,30.12,10.0,Calm,Calm,-,N/A,,Clear,0,2013-07-11 09:35:00
4:55 AM,58.6,55.4,89,30.12,10.0,Calm,Calm,-,N/A,,Clear,0,2013-07-11 09:55:00
5:15 AM,58.8,55.4,88,30.12,10.0,Calm,Calm,-,N/A,,Clear,0,2013-07-11 10:15:00
5:35 AM,58.6,55.4,89,30.13,10.0,Calm,Calm,-,N/A,,Clear,0,2013-07-11 10:35:00
5:55 AM,58.1,54.9,89,30.13,10.0,Calm,Calm,-,N/A,,Clear,0,2013-07-11 10:55:00
6:15 AM,58.1,55.0,90,30.13,10.0,Calm,Calm,-,N/A,,Clear,0,2013-07-11 11:15:00
6:35 AM,59.2,55.4,87,30.13,10.0,Calm,Calm,-,N/A,,Clear,0,2013-07-11 11:35:00
6:55 AM,59.9,55.9,87,30.14,10.0,Calm,Calm,-,N/A,,Clear,0,2013-07-11 11:55:00
7:15 AM,61.0,57.7,89,30.14,7.0,Calm,Calm,-,N/A,,Clear,0,2013-07-11 12:15:00
7:35 AM,63.7,57.7,81,30.15,10.0,Calm,Calm,-,N/A,,Clear,0,2013-07-11 12:35:00
7:55 AM,65.3,57.9,77,30.15,10.0,Calm,Calm,-,N/A,,Clear,0,2013-07-11 12:55:00
8:15 AM,68.2,59.2,73,30.16,10.0,Calm,Calm,-,N/A,,Clear,0,2013-07-11 13:15:00
8:35 AM,70.2,59.5,69,30.15,10.0,ESE,3.5,-,N/A,,Clear,110,2013-07-11 13:35:00
8:55 AM,70.7,60.1,69,30.15,10.0,SE,5.8,-,N/A,,Clear,130,2013-07-11 13:55:00
9:15 AM,71.6,58.1,62,30.15,10.0,SE,5.8,-,N/A,,Clear,130,2013-07-11 14:15:00
9:35 AM,73.2,57.9,59,30.15,10.0,SE,5.8,-,N/A,,Clear,140,2013-07-11 14:35:00
9:55 AM,73.8,57.9,58,30.15,10.0,ESE,8.1,-,N/A,,Clear,120,2013-07-11 14:55:00
10:15 AM,74.1,57.2,55,30.15,10.0,SE,5.8,-,N/A,,Clear,140,2013-07-11 15:15:00
10:35 AM,75.2,57.9,55,30.15,10.0,SE,5.8,-,N/A,,Clear,140,2013-07-11 15:35:00
10:55 AM,75.9,58.3,54,30.15,10.0,East,3.5,-,N/A,,Clear,100,2013-07-11 15:55:00
11:15 AM,76.5,55.6,48,30.15,10.0,ESE,4.6,-,N/A,,Clear,110,2013-07-11 16:15:00
11:35 AM,76.5,56.3,50,30.16,10.0,SSE,8.1,-,N/A,,Clear,150,2013-07-11 16:35:00
11:55 AM,77.0,56.1,48,30.15,10.0,ESE,5.8,-,N/A,,Clear,110,2013-07-11 16:55:00
12:15 PM,77.4,55.9,47,30.15,10.0,South,6.9,-,N/A,,Clear,180,2013-07-11 17:15:00
12:35 PM,78.1,56.1,47,30.14,10.0,SE,8.1,-,N/A,,Clear,130,2013-07-11 17:35:00
12:55 PM,78.3,55.8,46,30.13,10.0,ESE,4.6,-,N/A,,Clear,120,2013-07-11 17:55:00
1:15 PM,78.8,55.8,45,30.12,10.0,SSE,9.2,-,N/A,,Clear,150,2013-07-11 18:15:00
1:35 PM,79.5,55.0,43,30.11,10.0,SE,9.2,-,N/A,,Clear,130,2013-07-11 18:35:00
1:55 PM,79.9,55.4,43,30.11,10.0,ESE,6.9,-,N/A,,Clear,120,2013-07-11 18:55:00
2:15 PM,80.6,55.2,42,30.11,10.0,ESE,8.1,-,N/A,,Clear,120,2013-07-11 19:15:00
2:35 PM,80.2,55.2,42,30.10,10.0,SE,6.9,17.3,N/A,,Clear,130,2013-07-11 19:35:00
2:55 PM,80.6,54.7,41,30.10,10.0,SE,11.5,-,N/A,,Clear,140,2013-07-11 19:55:00
3:15 PM,80.6,54.1,40,30.10,10.0,South,10.4,-,N/A,,Clear,170,2013-07-11 20:15:00
3:35 PM,81.1,53.8,39,30.11,10.0,SSE,5.8,-,N/A,,Clear,160,2013-07-11 20:35:00
3:55 PM,81.5,53.8,38,30.10,10.0,ESE,10.4,-,N/A,,Clear,120,2013-07-11 20:55:00
4:15 PM,81.3,55.4,41,30.09,10.0,SSE,6.9,16.1,N/A,,Clear,150,2013-07-11 21:15:00
4:35 PM,81.5,56.8,43,30.09,10.0,SSE,6.9,16.1,N/A,,Clear,150,2013-07-11 21:35:00
4:55 PM,81.1,55.8,42,30.09,10.0,SSE,9.2,-,N/A,,Clear,160,2013-07-11 21:55:00
5:15 PM,81.0,54.1,39,30.09,10.0,SE,9.2,-,N/A,,Clear,130,2013-07-11 22:15:00
5:35 PM,81.0,55.4,41,30.09,10.0,SE,9.2,-,N/A,,Clear,130,2013-07-11 22:35:00
5:55 PM,80.6,56.3,43,30.08,10.0,SE,10.4,-,N/A,,Clear,140,2013-07-11 22:55:00
6:15 PM,80.1,55.0,42,30.08,10.0,SSE,9.2,-,N/A,,Clear,160,2013-07-11 23:15:00
6:35 PM,79.7,55.0,43,30.08,10.0,SE,10.4,-,N/A,,Clear,130,2013-07-11 23:35:00
6:55 PM,79.0,55.2,44,30.07,10.0,SSE,10.4,-,N/A,,Clear,150,2013-07-11 23:55:00
7:15 PM,78.4,55.0,44,30.07,10.0,SE,10.4,-,N/A,,Clear,140,2013-07-12 00:15:00
7:35 PM,77.7,54.5,45,30.07,10.0,SE,9.2,-,N/A,,Clear,140,2013-07-12 00:35:00
7:55 PM,76.8,55.9,48,30.07,10.0,SE,6.9,-,N/A,,Clear,140,2013-07-12 00:55:00
8:15 PM,75.4,55.9,51,30.06,10.0,SE,5.8,-,N/A,,Clear,130,2013-07-12 01:15:00
8:35 PM,73.8,56.1,54,30.06,10.0,SE,5.8,-,N/A,,Clear,140,2013-07-12 01:35:00
8:55 PM,72.5,55.6,55,30.06,10.0,SE,5.8,-,N/A,,Clear,130,2013-07-12 01:55:00
9:15 PM,71.2,56.1,59,30.06,10.0,SE,8.1,-,N/A,,Clear,130,2013-07-12 02:15:00
9:35 PM,70.9,56.1,59,30.06,10.0,ESE,5.8,-,N/A,,Clear,120,2013-07-12 02:35:00
9:55 PM,68.9,57.2,66,30.06,10.0,SE,5.8,-,N/A,,Clear,130,2013-07-12 02:55:00
10:15 PM,68.7,56.5,65,30.07,10.0,SE,6.9,-,N/A,,Clear,130,2013-07-12 03:15:00
10:35 PM,68.0,56.5,67,30.07,10.0,ESE,6.9,-,N/A,,Clear,120,2013-07-12 03:35:00
10:55 PM,67.6,56.5,67,30.07,10.0,SE,5.8,-,N/A,,Clear,130,2013-07-12 03:55:00
11:15 PM,67.5,56.8,69,30.07,10.0,ESE,5.8,-,N/A,,Clear,120,2013-07-12 04:15:00
11:35 PM,66.4,57.2,72,30.08,10.0,ESE,6.9,-,N/A,,Clear,120,2013-07-12 04:35:00
11:55 PM,66.2,57.2,73,30.08,10.0,ESE,6.9,-,N/A,,Clear,120,2013-07-12 04:55:00